Stations météo

réclame
Mon MeteoGroup
Adra, Espagne (8486): Température de l'air & dewpoint: 13.01.2020 21:00:00 - 19.01.2020 21:00:00 (CET)Adra, Espagne (8486): Vitesse du vent & gusts: 13.01.2020 21:00:00 - 19.01.2020 21:00:00 (CET)Adra, Espagne (8486): Direction du vent: 13.01.2020 21:00:00 - 19.01.2020 21:00:00 (CET)Adra, Espagne (8486): reduced air pressure: 13.01.2020 21:00:00 - 19.01.2020 21:00:00 (CET)Adra, Espagne (8486): Quantités de précipitations: 13.01.2020 21:00:00 - 19.01.2020 21:00:00 (CET)
Date & Time tt [°C] td [°C] ff [km/h] ff [knt] fx [km/h] fx [knt] dd ppp [hPa] rr [mm]
19.01.2020 21:00:00 - - - - - - - - -
19.01.2020 20:00:00 14,1 7,6 8 4 19 10 ENE 1015,9 0,0
19.01.2020 19:00:00 14,1 2,1 6 3 13 7 ENE 1015,3 -
19.01.2020 18:00:00 15,1 2,7 5 3 23 12 ENE 1015,5 0,0
19.01.2020 17:00:00 16,1 2,1 7 4 18 10 N 1015,0 0,0
19.01.2020 16:00:00 16,5 4,5 5 3 21 11 E 1015,1 0,0
19.01.2020 15:00:00 18,6 2,5 4 2 28 15 NNE 1013,1 0,0
19.01.2020 14:00:00 17,3 2,5 11 6 32 17 NNE 1014,2 0,0
19.01.2020 13:00:00 16,7 2,3 8 4 24 13 ENE 1015,8 -
19.01.2020 12:00:00 16,4 4,8 2 1 11 6 WSW 1017,1 0,0
19.01.2020 11:00:00 17,0 6,5 6 4 23 12 W 1015,6 0,0
19.01.2020 10:00:00 17,3 2,9 8 5 29 15 NNW 1015,2 0,0
19.01.2020 09:00:00 15,1 4,5 6 3 18 10 N 1016,1 0,0
19.01.2020 08:00:00 13,1 5,8 3 1 21 12 NW 1016,5 0,0
19.01.2020 07:00:00 12,8 7,7 5 3 9 5 NE 1016,0 -
19.01.2020 06:00:00 14,4 9,2 4 2 21 11 NNE 1015,6 0,0
19.01.2020 05:00:00 13,4 9,0 5 3 13 7 ENE 1016,5 0,0
19.01.2020 04:00:00 14,6 11,2 6 3 21 11 NNE 1017,4 0,0
19.01.2020 03:00:00 15,2 13,3 13 7 34 19 W 1018,9 0,0
19.01.2020 02:00:00 14,9 13,0 10 5 35 19 W 1020,3 0,0
19.01.2020 01:00:00 15,2 13,4 25 14 43 23 WSW 1022,2 -
19.01.2020 00:00:00 15,2 12,3 19 11 35 19 W 1023,6 0,0
18.01.2020 23:00:00 15,2 11,8 20 11 35 19 W 1024,3 0,1
18.01.2020 22:00:00 14,7 10,9 10 6 24 13 W 1025,6 0,0
18.01.2020 21:00:00 13,9 10,5 2 1 6 4 NNW 1027,1 0,0
18.01.2020 20:00:00 14,1 11,1 0 0 6 4 E 1027,8 0,0
18.01.2020 19:00:00 14,0 11,0 2 1 6 4 NNW 1028,6 -
18.01.2020 18:00:00 14,6 11,3 5 3 14 8 W 1029,0 0,0
18.01.2020 17:00:00 14,6 10,6 10 5 16 8 WSW 1029,6 0,0
18.01.2020 16:00:00 15,8 10,3 5 3 10 5 WSW 1029,4 0,0
18.01.2020 15:00:00 14,8 10,6 2 1 9 5 E 1030,3 0,0
18.01.2020 14:00:00 14,6 11,0 0 0 6 3 N 1031,7 0,0
18.01.2020 13:00:00 14,3 10,9 4 2 15 8 W 1033,3 -
18.01.2020 12:00:00 15,2 9,9 5 3 11 6 W 1033,7 0,0
18.01.2020 11:00:00 16,3 8,3 3 2 10 5 WSW 1032,7 0,0
18.01.2020 10:00:00 15,7 6,1 1 0 8 4 SW 1032,0 0,0
18.01.2020 09:00:00 14,6 5,1 3 1 12 7 NE 1032,3 0,0
18.01.2020 08:00:00 14,6 5,1 6 3 13 7 NNE 1032,3 0,0
18.01.2020 07:00:00 14,3 5,1 5 3 15 8 NNE 1032,4 -
18.01.2020 06:00:00 14,4 5,9 5 3 15 8 NE 1032,2 0,0
18.01.2020 05:00:00 13,8 7,8 6 4 11 6 NNE 1032,8 0,0
18.01.2020 04:00:00 12,7 8,0 3 2 8 4 NE 1033,5 0,0
18.01.2020 03:00:00 13,6 7,1 2 1 10 5 ENE 1033,6 0,0
18.01.2020 02:00:00 14,2 6,8 6 3 15 8 ENE 1033,1 0,0
18.01.2020 01:00:00 13,9 5,5 8 4 17 9 ENE 1033,4 -
18.01.2020 00:00:00 13,3 6,7 4 2 8 4 NNW 1033,6 0,0
17.01.2020 23:00:00 13,3 6,2 3 2 7 4 N 1033,7 0,0
17.01.2020 22:00:00 13,5 6,4 2 1 6 4 N 1033,5 0,0
17.01.2020 21:00:00 13,2 7,8 1 1 5 3 N 1033,2 0,0
17.01.2020 20:00:00 13,8 9,0 2 1 7 4 N 1032,9 0,0
17.01.2020 19:00:00 14,6 9,4 0 0 5 3 ENE 1032,1 -
17.01.2020 18:00:00 16,1 8,1 2 1 6 3 E 1031,5 0,0
17.01.2020 17:00:00 17,3 8,1 1 1 7 4 ENE 1030,5 0,0
17.01.2020 16:00:00 16,7 8,7 5 3 9 5 SSE 1030,1 0,0
17.01.2020 15:00:00 16,5 9,9 4 2 8 5 SSE 1030,0 0,0
17.01.2020 14:00:00 16,7 11,4 4 2 10 5 SE 1030,8 0,0
17.01.2020 13:00:00 16,4 10,3 5 3 11 6 ESE 1032,0 -
17.01.2020 12:00:00 15,8 8,3 6 4 11 6 SE 1032,9 0,0
17.01.2020 11:00:00 17,4 6,8 2 1 7 4 S 1032,0 0,0
17.01.2020 10:00:00 15,0 6,1 1 1 9 5 E 1031,7 0,0
17.01.2020 09:00:00 11,7 4,1 4 2 13 7 NNE 1032,6 0,0
17.01.2020 08:00:00 11,1 3,6 4 2 14 8 NNE 1032,7 0,0
17.01.2020 07:00:00 11,2 4,6 4 2 13 7 NNE 1032,1 -
17.01.2020 06:00:00 10,9 4,6 4 2 9 5 NE 1031,8 0,0
17.01.2020 05:00:00 10,9 6,8 4 2 7 4 N 1031,9 0,0
17.01.2020 04:00:00 10,4 4,3 1 1 10 6 NNW 1031,9 0,0
17.01.2020 03:00:00 10,8 6,7 3 2 6 4 N 1032,3 0,0
17.01.2020 02:00:00 11,5 7,3 4 2 7 4 N 1032,0 0,0
17.01.2020 01:00:00 11,6 7,8 4 2 7 4 N 1032,1 -
17.01.2020 00:00:00 11,9 7,8 3 2 7 4 N 1032,2 0,0
16.01.2020 23:00:00 12,0 7,6 5 3 8 5 N 1031,9 0,0
16.01.2020 22:00:00 13,0 10,0 3 2 8 4 NNW 1031,6 0,0
16.01.2020 21:00:00 12,5 9,3 5 3 6 4 NNW 1031,2 0,0
16.01.2020 20:00:00 13,1 9,9 4 2 6 3 N 1030,9 0,0
16.01.2020 19:00:00 13,5 10,3 4 2 10 6 N 1030,4 -
16.01.2020 18:00:00 15,1 11,1 6 4 14 8 SW 1029,5 0,0
16.01.2020 17:00:00 15,9 11,4 5 3 10 5 SW 1028,4 0,0
16.01.2020 16:00:00 16,7 11,7 5 3 11 6 SW 1028,0 0,0
16.01.2020 15:00:00 17,2 11,9 4 2 10 5 SSW 1027,9 0,0
16.01.2020 14:00:00 16,4 12,0 4 2 8 4 SSE 1029,1 0,0
16.01.2020 13:00:00 15,9 11,7 5 3 8 4 SSE 1030,5 -
16.01.2020 12:00:00 15,7 10,9 5 3 8 4 SE 1030,8 0,0
16.01.2020 11:00:00 16,3 7,0 3 1 9 5 ESE 1030,4 0,0
16.01.2020 10:00:00 13,6 2,9 5 3 14 8 E 1030,4 0,0
16.01.2020 09:00:00 12,8 2,3 6 3 15 8 ENE 1030,5 0,0
16.01.2020 08:00:00 12,3 2,7 4 2 20 11 NNE 1030,4 0,0
16.01.2020 07:00:00 11,3 3,4 6 4 13 7 ENE 1030,0 -
16.01.2020 06:00:00 10,6 6,1 4 2 9 5 N 1030,1 0,0
16.01.2020 05:00:00 10,7 5,8 5 3 8 5 N 1030,0 0,0
16.01.2020 04:00:00 11,3 6,4 4 2 7 4 N 1030,4 0,0
16.01.2020 03:00:00 11,4 6,7 3 2 8 5 N 1030,6 0,0
16.01.2020 02:00:00 11,5 7,0 4 2 8 4 N 1030,4 0,0
16.01.2020 01:00:00 11,9 7,8 4 2 10 5 N 1030,5 -
16.01.2020 00:00:00 11,7 7,6 3 2 6 3 N 1030,7 0,0
15.01.2020 23:00:00 12,0 7,7 4 2 8 4 N 1030,7 0,0
15.01.2020 22:00:00 12,1 7,8 3 1 8 4 N 1030,6 0,0
15.01.2020 21:00:00 12,5 8,3 1 0 4 2 N 1030,5 0,0
15.01.2020 20:00:00 12,9 8,8 0 0 4 2 N 1030,5 0,0
15.01.2020 19:00:00 13,6 9,3 3 2 5 3 N 1029,8 -
15.01.2020 18:00:00 15,6 9,3 2 1 5 3 SSE 1029,0 0,0
15.01.2020 17:00:00 16,4 9,8 3 1 6 4 SE 1027,8 0,0
15.01.2020 16:00:00 16,7 10,3 4 2 8 5 SSE 1027,1 0,0
15.01.2020 15:00:00 16,7 9,8 4 2 7 4 SSE 1026,7 0,0
15.01.2020 14:00:00 17,1 10,3 3 2 10 5 SSE 1027,7 0,0
15.01.2020 13:00:00 15,8 8,5 6 3 14 7 SE 1028,6 -
15.01.2020 12:00:00 15,6 7,8 7 4 12 7 SE 1029,2 0,0
15.01.2020 11:00:00 15,2 4,8 4 2 14 7 ENE 1028,6 0,0
15.01.2020 10:00:00 14,3 3,4 6 3 14 8 NNE 1028,2 0,0
15.01.2020 09:00:00 12,3 3,0 3 1 13 7 NNE 1028,2 0,0
15.01.2020 08:00:00 12,0 2,7 3 2 13 7 NNE 1027,4 0,0
15.01.2020 07:00:00 12,2 3,2 7 4 16 9 NNE 1026,7 -
15.01.2020 06:00:00 10,7 4,3 4 2 9 5 NNE 1026,0 0,0
15.01.2020 05:00:00 10,3 4,5 1 1 8 4 N 1026,0 0,0
15.01.2020 04:00:00 10,9 5,5 3 2 5 3 NNE 1026,0 0,0
15.01.2020 03:00:00 11,1 5,6 0 0 6 4 N 1026,1 0,0
15.01.2020 02:00:00 11,5 5,9 4 2 8 4 N 1025,9 0,0
15.01.2020 01:00:00 11,6 6,7 0 0 6 3 N 1026,4 -
15.01.2020 00:00:00 11,9 7,8 1 1 6 3 NNE 1026,3 0,0
14.01.2020 23:00:00 12,4 8,1 4 2 6 3 NNE 1026,1 0,0
14.01.2020 22:00:00 12,1 8,0 3 2 6 3 N 1025,9 0,0
14.01.2020 21:00:00 12,7 8,4 1 1 8 5 NNE 1025,6 0,0
14.01.2020 20:00:00 13,3 8,9 4 2 10 5 NNW 1025,5 0,0
14.01.2020 19:00:00 14,1 9,2 4 2 28 15 W 1024,9 -
14.01.2020 18:00:00 14,7 9,7 19 11 33 18 W 1024,2 0,0
14.01.2020 17:00:00 14,5 9,6 21 12 35 19 W 1024,1 0,0
14.01.2020 16:00:00 14,7 9,9 22 12 37 20 W 1023,8 0,0
14.01.2020 15:00:00 15,0 10,0 22 12 36 19 WSW 1023,6 0,0
14.01.2020 14:00:00 15,0 9,8 20 11 32 18 SW 1024,1 0,0
14.01.2020 13:00:00 14,8 7,6 11 6 16 9 WSW 1025,4 -
14.01.2020 12:00:00 15,9 5,5 4 2 11 6 SSW 1025,7 0,0
14.01.2020 11:00:00 14,7 2,5 4 2 8 5 ENE 1025,7 0,0
14.01.2020 10:00:00 12,6 2,5 3 1 8 5 NNE 1026,3 0,0
14.01.2020 09:00:00 11,5 2,3 5 3 10 6 NNE 1026,0 0,0
14.01.2020 08:00:00 10,0 2,1 2 1 14 8 N 1026,3 0,0
14.01.2020 07:00:00 9,7 3,2 2 1 13 7 NE 1025,6 -
14.01.2020 06:00:00 9,7 5,9 4 2 8 4 NNE 1024,9 0,0
14.01.2020 05:00:00 9,7 7,0 3 2 8 4 NNE 1024,9 0,0
14.01.2020 04:00:00 9,6 7,1 3 2 7 4 NNE 1024,9 0,0
14.01.2020 03:00:00 10,2 7,4 4 2 6 4 NNE 1025,3 0,0
14.01.2020 02:00:00 10,3 8,1 3 2 6 3 NNE 1025,6 0,0
14.01.2020 01:00:00 10,7 8,0 5 3 7 4 NNW 1026,1 -
14.01.2020 00:00:00 11,1 8,1 3 2 7 4 NNE 1026,6 0,0
13.01.2020 23:00:00 11,3 8,4 5 3 8 4 N 1026,8 0,0
13.01.2020 22:00:00 11,7 8,5 3 1 7 4 N 1026,8 0,0
13.01.2020 21:00:00 12,3 8,9 2 1 10 5 NNW 1027,3 0,0

tt = Température de l'air
td = dewpoint
ff = Vitesse du vent
fx = gusts
dd = Direction du vent
ppp = reduced air pressure
rr = Quantités de précipitations

stations d'obs. à proximité